Time;durP1;ratioP1;P1;durP2;ratioP2;P2;SDS_P1;SDS_P2;PMS_P1;PMS_P2;Temp;Humidity;BMP_temperature;BMP_pressure;BME280_temperature;BME280_humidity;BME280_pressure;Samples;Min_cycle;Max_cycle;Signal;HPM_P1;HPM_P2
2024/02/25 00:00:20;;;;;;;3.00;2.30;;;7.40;99.90;;;;;;5011181;28;20208;-66
2024/02/25 00:02:45;;;;;;;2.80;2.10;;;7.50;99.90;;;;;;5012595;28;20243;-67
2024/02/25 00:05:11;;;;;;;2.83;2.07;;;7.50;99.90;;;;;;5014323;28;20204;-66
2024/02/25 00:07:37;;;;;;;3.60;2.03;;;7.40;99.90;;;;;;5013640;28;20177;-66
2024/02/25 00:10:03;;;;;;;4.03;2.80;;;7.40;99.90;;;;;;5011560;28;20686;-66
2024/02/25 00:12:29;;;;;;;2.03;1.60;;;7.40;99.90;;;;;;5016551;28;20541;-66
2024/02/25 00:14:54;;;;;;;3.47;2.20;;;7.50;99.90;;;;;;5010734;28;20463;-67
2024/02/25 00:17:20;;;;;;;2.80;1.60;;;7.50;99.90;;;;;;5010754;28;20185;-67
2024/02/25 00:19:46;;;;;;;2.50;1.80;;;7.50;99.90;;;;;;5013527;28;20255;-67
2024/02/25 00:22:12;;;;;;;2.43;1.80;;;7.50;99.90;;;;;;5018614;28;20215;-67
2024/02/25 00:24:38;;;;;;;3.07;1.90;;;7.50;99.90;;;;;;5022814;28;20200;-66
2024/02/25 00:27:03;;;;;;;2.50;2.00;;;7.50;99.90;;;;;;5016891;28;20925;-66
2024/02/25 00:29:29;;;;;;;2.20;1.80;;;7.60;99.90;;;;;;5019360;28;20415;-66
2024/02/25 00:31:54;;;;;;;3.23;2.00;;;7.60;99.90;;;;;;5012498;28;20189;-66
2024/02/25 00:34:20;;;;;;;3.10;2.03;;;7.60;99.90;;;;;;5018647;28;20204;-67
2024/02/25 00:36:49;;;;;;;2.97;1.97;;;7.60;99.90;;;;;;5013344;28;20243;-67
2024/02/25 00:39:17;;;;;;;3.33;1.93;;;7.60;99.90;;;;;;5017970;28;20312;-66
2024/02/25 00:41:44;;;;;;;3.50;2.13;;;7.60;99.90;;;;;;5016417;28;20460;-66
2024/02/25 00:44:09;;;;;;;2.50;2.00;;;7.60;99.90;;;;;;5014119;28;20443;-66
2024/02/25 00:46:35;;;;;;;2.50;1.90;;;7.60;99.90;;;;;;5018782;28;20745;-66
2024/02/25 00:49:00;;;;;;;2.93;1.90;;;7.60;99.90;;;;;;5014505;28;20642;-67
2024/02/25 00:51:26;;;;;;;3.57;1.80;;;7.60;99.90;;;;;;5020354;28;20199;-66
2024/02/25 00:53:52;;;;;;;2.40;1.60;;;7.60;99.90;;;;;;5018226;28;20204;-66
2024/02/25 00:56:18;;;;;;;2.47;1.83;;;7.60;99.90;;;;;;5014538;28;20423;-66
2024/02/25 00:58:44;;;;;;;3.60;1.93;;;7.60;99.90;;;;;;5018120;28;20426;-66
2024/02/25 01:01:16;;;;;;;2.30;1.70;;;7.60;99.90;;;;;;5012288;28;20220;-66
2024/02/25 01:03:42;;;;;;;3.70;1.90;;;7.60;99.90;;;;;;5022425;28;20193;-66
2024/02/25 01:06:08;;;;;;;3.50;2.37;;;7.60;99.90;;;;;;5016131;28;20861;-66
2024/02/25 01:08:38;;;;;;;2.60;1.97;;;7.60;99.90;;;;;;5016760;28;20518;-66
2024/02/25 01:11:07;;;;;;;3.00;1.90;;;7.60;99.90;;;;;;5014681;28;20558;-66
2024/02/25 01:13:33;;;;;;;3.27;2.00;;;7.50;99.90;;;;;;5012950;28;20580;-66
2024/02/25 01:16:02;;;;;;;2.97;2.00;;;7.50;99.90;;;;;;5016177;28;21084;-67
2024/02/25 01:18:31;;;;;;;2.60;1.70;;;7.50;99.90;;;;;;5020667;28;20522;-67
2024/02/25 01:20:57;;;;;;;2.50;1.90;;;7.50;99.90;;;;;;5016448;28;20476;-67
2024/02/25 01:23:23;;;;;;;3.70;1.97;;;7.50;99.90;;;;;;5016628;28;20425;-67
2024/02/25 01:25:48;;;;;;;2.93;1.90;;;7.50;99.90;;;;;;5013579;28;20192;-67
2024/02/25 01:28:14;;;;;;;4.37;2.00;;;7.50;99.90;;;;;;5019889;28;20185;-67
2024/02/25 01:30:40;;;;;;;3.13;2.00;;;7.50;99.90;;;;;;5018436;28;20619;-67
2024/02/25 01:33:05;;;;;;;3.03;2.07;;;7.50;99.90;;;;;;5011255;28;20249;-65
2024/02/25 01:35:31;;;;;;;2.67;2.00;;;7.50;99.90;;;;;;5018454;28;20267;-65
2024/02/25 01:37:56;;;;;;;6.83;2.00;;;7.40;99.90;;;;;;5016404;28;20258;-67
2024/02/25 01:40:22;;;;;;;2.27;1.73;;;7.40;99.90;;;;;;5018815;28;20647;-67
2024/02/25 01:43:33;;;;;;;3.03;2.20;;;7.40;99.90;;;;;;5017817;28;20177;-67
2024/02/25 01:45:59;;;;;;;2.33;1.60;;;7.40;99.90;;;;;;5016150;28;20279;-67
2024/02/25 01:48:24;;;;;;;2.00;1.53;;;7.40;99.90;;;;;;5016782;28;20506;-67
2024/02/25 01:50:50;;;;;;;3.87;1.90;;;7.40;99.90;;;;;;5013943;28;20639;-67
2024/02/25 01:53:17;;;;;;;2.53;2.00;;;7.40;99.90;;;;;;5017219;28;20186;-67
2024/02/25 01:55:49;;;;;;;2.27;2.03;;;7.40;99.90;;;;;;5014495;28;20449;-68
2024/02/25 01:58:16;;;;;;;2.57;1.80;;;7.40;99.90;;;;;;5015645;28;20788;-67
2024/02/25 02:00:42;;;;;;;3.00;2.10;;;7.40;99.90;;;;;;5020127;28;20454;-67
2024/02/25 02:03:07;;;;;;;2.27;1.60;;;7.40;99.90;;;;;;5017385;28;20424;-67
2024/02/25 02:05:34;;;;;;;2.40;1.50;;;7.40;99.90;;;;;;5018647;28;20566;-67
2024/02/25 02:08:00;;;;;;;2.40;1.73;;;7.50;99.90;;;;;;5016594;28;20609;-67
2024/02/25 02:10:26;;;;;;;2.30;1.53;;;7.50;99.90;;;;;;5016028;28;20557;-67
2024/02/25 02:12:52;;;;;;;4.93;2.03;;;7.50;99.90;;;;;;5014855;28;20560;-68
2024/02/25 02:15:17;;;;;;;2.57;1.83;;;7.50;99.90;;;;;;5014765;28;20218;-67
2024/02/25 02:17:44;;;;;;;2.80;1.93;;;7.50;99.90;;;;;;5015702;28;20252;-67
2024/02/25 02:20:18;;;;;;;2.87;1.90;;;7.50;99.90;;;;;;5011128;28;20554;-67
2024/02/25 02:22:44;;;;;;;2.83;1.87;;;7.50;99.90;;;;;;5013066;28;20519;-67
2024/02/25 02:25:10;;;;;;;3.10;1.97;;;7.50;99.90;;;;;;5011366;28;21131;-67
2024/02/25 02:27:36;;;;;;;2.70;1.83;;;7.50;99.90;;;;;;5015808;28;20412;-66
2024/02/25 02:30:03;;;;;;;4.67;2.50;;;7.40;99.90;;;;;;5009616;28;20956;-67
2024/02/25 02:32:29;;;;;;;4.00;1.87;;;7.40;99.90;;;;;;5011488;28;20831;-67
2024/02/25 02:34:54;;;;;;;3.10;1.90;;;7.40;99.90;;;;;;5011284;28;20443;-67
2024/02/25 02:37:20;;;;;;;3.13;2.00;;;7.50;99.90;;;;;;5015988;28;20658;-67
2024/02/25 02:39:45;;;;;;;2.90;2.00;;;7.40;99.90;;;;;;5020298;28;20574;-67
2024/02/25 02:42:11;;;;;;;3.43;2.13;;;7.40;99.90;;;;;;5012595;28;20205;-67
2024/02/25 02:44:37;;;;;;;3.27;2.17;;;7.40;99.90;;;;;;5016380;28;20208;-66
2024/02/25 02:47:03;;;;;;;3.63;2.20;;;7.20;99.90;;;;;;5012149;28;20793;-67
2024/02/25 02:49:29;;;;;;;3.00;2.17;;;7.30;99.90;;;;;;5012743;28;20412;-66
2024/02/25 02:51:58;;;;;;;2.63;2.00;;;7.30;99.90;;;;;;5011402;28;20249;-67
2024/02/25 02:54:25;;;;;;;4.27;2.40;;;7.30;99.90;;;;;;5016000;28;20212;-66
2024/02/25 02:56:50;;;;;;;4.13;2.90;;;7.20;99.90;;;;;;5012483;28;20594;-66
2024/02/25 02:59:16;;;;;;;3.57;2.50;;;7.20;99.90;;;;;;5013587;28;20495;-66
2024/02/25 03:01:41;;;;;;;2.97;2.10;;;7.10;99.90;;;;;;5017171;28;20840;-66
2024/02/25 03:04:08;;;;;;;4.73;3.00;;;7.10;99.90;;;;;;5010914;28;20204;-66
2024/02/25 03:06:33;;;;;;;4.13;2.80;;;7.10;99.90;;;;;;5014101;28;20222;-66
2024/02/25 03:08:59;;;;;;;3.47;2.23;;;7.10;99.90;;;;;;5012880;28;20423;-66
2024/02/25 03:11:25;;;;;;;4.43;2.40;;;7.10;99.90;;;;;;5015944;28;20192;-67
2024/02/25 03:13:50;;;;;;;4.70;2.70;;;7.00;99.90;;;;;;5018974;28;20208;-66
2024/02/25 03:16:16;;;;;;;4.20;2.77;;;7.00;99.90;;;;;;5015055;28;20192;-66
2024/02/25 03:18:42;;;;;;;4.03;2.57;;;7.10;99.90;;;;;;5015462;28;20181;-66
2024/02/25 03:21:08;;;;;;;4.83;2.70;;;7.10;99.90;;;;;;5010723;28;20565;-66
2024/02/25 03:23:33;;;;;;;2.83;2.20;;;7.10;99.90;;;;;;5017034;28;20419;-66
2024/02/25 03:25:59;;;;;;;3.23;2.40;;;7.00;99.90;;;;;;5012435;28;20181;-67
2024/02/25 03:28:25;;;;;;;4.03;2.63;;;7.00;99.90;;;;;;5013860;28;20213;-67
2024/02/25 03:30:51;;;;;;;3.90;2.30;;;7.00;99.90;;;;;;5015267;28;20432;-66
2024/02/25 03:33:16;;;;;;;3.10;2.10;;;7.00;99.90;;;;;;5018180;28;20193;-67
2024/02/25 03:35:42;;;;;;;3.70;2.50;;;7.00;99.90;;;;;;5017603;28;20455;-66
2024/02/25 03:38:08;;;;;;;3.33;2.40;;;7.00;99.90;;;;;;5017091;28;20184;-66
2024/02/25 03:40:33;;;;;;;2.97;2.30;;;7.00;99.90;;;;;;5017808;28;20205;-66
2024/02/25 03:42:59;;;;;;;3.87;2.60;;;7.00;99.90;;;;;;5012897;28;20188;-66
2024/02/25 03:45:24;;;;;;;4.17;2.20;;;7.00;99.90;;;;;;5016594;28;20278;-67
2024/02/25 03:47:50;;;;;;;3.33;2.30;;;7.00;99.90;;;;;;5014488;28;20183;-67
2024/02/25 03:50:16;;;;;;;2.97;2.57;;;7.10;99.90;;;;;;5012645;28;20176;-66
2024/02/25 03:52:42;;;;;;;4.00;2.80;;;7.10;99.90;;;;;;5011974;28;20507;-67
2024/02/25 03:55:08;;;;;;;3.47;2.77;;;7.10;99.90;;;;;;5011901;28;20446;-67
2024/02/25 03:57:34;;;;;;;3.53;2.47;;;7.10;99.90;;;;;;5017898;28;20267;-67
2024/02/25 03:59:59;;;;;;;5.30;3.70;;;7.10;99.90;;;;;;5018585;28;20176;-67
2024/02/25 04:02:25;;;;;;;3.43;2.37;;;7.00;99.90;;;;;;5013309;28;20299;-67
2024/02/25 04:04:51;;;;;;;5.33;2.90;;;7.00;99.90;;;;;;5012666;28;20197;-67
2024/02/25 04:07:17;;;;;;;3.93;2.80;;;6.90;99.90;;;;;;5018362;28;20177;-67
2024/02/25 04:09:43;;;;;;;5.00;3.00;;;6.90;99.90;;;;;;5013766;28;20419;-67
2024/02/25 04:12:09;;;;;;;5.17;2.87;;;6.90;99.90;;;;;;5012267;28;20191;-68
2024/02/25 04:14:35;;;;;;;3.70;2.40;;;6.90;99.90;;;;;;5011930;28;20471;-65
2024/02/25 04:17:01;;;;;;;3.73;2.83;;;6.90;99.90;;;;;;5013572;28;20181;-66
2024/02/25 04:19:26;;;;;;;3.30;2.37;;;6.90;99.90;;;;;;5013265;28;20520;-66
2024/02/25 04:21:52;;;;;;;3.60;2.57;;;6.90;99.90;;;;;;5017867;28;20208;-66
2024/02/25 04:24:18;;;;;;;3.20;2.50;;;6.90;99.90;;;;;;5009338;28;20192;-66
2024/02/25 04:26:44;;;;;;;3.60;2.87;;;6.90;99.90;;;;;;5016879;28;20258;-66
2024/02/25 04:29:10;;;;;;;5.03;2.90;;;6.80;99.90;;;;;;5013269;28;20304;-67
2024/02/25 04:31:42;;;;;;;4.07;3.67;;;6.80;99.90;;;;;;5015381;28;20426;-67
2024/02/25 04:34:08;;;;;;;5.43;3.23;;;6.80;99.90;;;;;;5012524;28;20570;-67
2024/02/25 04:36:33;;;;;;;3.83;3.10;;;6.80;99.90;;;;;;5011734;28;20498;-67
2024/02/25 04:38:59;;;;;;;3.63;2.57;;;6.80;99.90;;;;;;5009801;28;20181;-67
2024/02/25 04:41:24;;;;;;;3.33;2.60;;;6.70;99.90;;;;;;5016066;28;20203;-66
2024/02/25 04:43:51;;;;;;;4.73;3.20;;;6.70;99.90;;;;;;5015067;28;20315;-66
2024/02/25 04:46:16;;;;;;;3.40;2.50;;;6.70;99.90;;;;;;5010105;28;20180;-66
2024/02/25 04:48:42;;;;;;;3.40;2.33;;;6.70;99.90;;;;;;5010920;28;20435;-67
2024/02/25 04:51:07;;;;;;;3.50;2.63;;;6.70;99.90;;;;;;5011614;28;20240;-67
2024/02/25 04:53:33;;;;;;;5.43;2.53;;;6.70;99.90;;;;;;5012653;28;20234;-67
2024/02/25 04:56:00;;;;;;;4.00;2.73;;;6.70;99.90;;;;;;5016805;28;20223;-67
2024/02/25 04:58:25;;;;;;;3.90;2.53;;;6.80;99.90;;;;;;5014534;28;20215;-67
2024/02/25 05:00:51;;;;;;;3.20;2.40;;;6.80;99.90;;;;;;5013832;28;20824;-66
2024/02/25 05:03:17;;;;;;;3.70;2.70;;;6.80;99.90;;;;;;5007702;28;20216;-65
2024/02/25 05:05:42;;;;;;;4.10;2.87;;;6.80;99.90;;;;;;5011129;28;20283;-66
2024/02/25 05:08:08;;;;;;;4.10;3.00;;;6.70;99.90;;;;;;5021101;28;20283;-67
2024/02/25 05:10:34;;;;;;;4.27;3.13;;;6.60;99.90;;;;;;5013236;28;20180;-66
2024/02/25 05:12:59;;;;;;;3.97;3.10;;;6.70;99.90;;;;;;5014802;28;20689;-66
2024/02/25 05:15:27;;;;;;;4.40;3.50;;;6.70;99.90;;;;;;5015491;28;20589;-67
2024/02/25 05:17:52;;;;;;;4.17;3.23;;;6.70;99.90;;;;;;5020989;28;20184;-66
2024/02/25 05:20:18;;;;;;;4.67;3.53;;;6.80;99.90;;;;;;5018371;28;20504;-66
2024/02/25 05:22:43;;;;;;;5.10;3.73;;;6.80;99.90;;;;;;5015890;28;20216;-67
2024/02/25 05:25:12;;;;;;;5.30;4.03;;;6.90;99.90;;;;;;5018765;28;20625;-67
2024/02/25 05:27:39;;;;;;;4.93;3.90;;;6.90;99.90;;;;;;5015206;28;20200;-66
2024/02/25 05:30:05;;;;;;;3.87;3.10;;;6.90;99.90;;;;;;5022359;28;20416;-66
2024/02/25 05:32:30;;;;;;;5.20;3.97;;;7.00;99.90;;;;;;5015197;28;20432;-66
2024/02/25 05:34:56;;;;;;;4.87;3.40;;;7.00;99.90;;;;;;5025595;28;20447;-66
2024/02/25 05:37:22;;;;;;;4.83;3.70;;;7.00;99.90;;;;;;5017133;28;20896;-66
2024/02/25 05:39:49;;;;;;;5.93;4.20;;;7.00;99.90;;;;;;5015606;28;20177;-66
2024/02/25 05:42:14;;;;;;;5.43;3.73;;;7.10;99.90;;;;;;5011298;28;20521;-66
2024/02/25 05:44:40;;;;;;;4.60;3.83;;;7.10;99.90;;;;;;5010761;28;20818;-66
2024/02/25 05:47:06;;;;;;;5.77;4.17;;;7.10;99.90;;;;;;5014873;28;20667;-66
2024/02/25 05:49:31;;;;;;;6.20;3.77;;;7.10;99.90;;;;;;5010486;28;20450;-66
2024/02/25 05:51:57;;;;;;;5.53;3.83;;;7.10;99.90;;;;;;5018945;28;20196;-66
2024/02/25 05:54:22;;;;;;;4.90;3.83;;;7.10;99.90;;;;;;5012675;28;20856;-66
2024/02/25 05:56:49;;;;;;;8.03;3.20;;;7.10;99.90;;;;;;5013665;28;20177;-66
2024/02/25 05:59:14;;;;;;;4.03;3.17;;;7.00;99.90;;;;;;5019038;28;20878;-66
2024/02/25 06:01:49;;;;;;;7.07;3.57;;;7.00;99.90;;;;;;5016566;28;20460;-66
2024/02/25 06:04:16;;;;;;;3.43;2.97;;;7.00;99.90;;;;;;5023957;28;20203;-67
2024/02/25 06:06:48;;;;;;;4.63;3.03;;;7.00;99.90;;;;;;5012913;28;20431;-67
2024/02/25 06:09:14;;;;;;;6.90;3.83;;;6.90;99.90;;;;;;5009355;28;20419;-66
2024/02/25 06:11:40;;;;;;;4.23;3.20;;;7.00;99.90;;;;;;5020739;28;21266;-66
2024/02/25 06:14:05;;;;;;;5.57;3.27;;;7.00;99.90;;;;;;5012459;28;20587;-67
2024/02/25 06:16:32;;;;;;;6.07;3.70;;;7.00;99.90;;;;;;5012266;28;20515;-66
2024/02/25 06:18:59;;;;;;;4.27;3.10;;;7.10;99.90;;;;;;5016406;28;20554;-66
2024/02/25 06:21:24;;;;;;;4.73;2.83;;;7.10;99.90;;;;;;5015634;28;20509;-66
2024/02/25 06:23:50;;;;;;;3.60;2.90;;;7.10;99.90;;;;;;5018835;28;20992;-67
2024/02/25 06:26:16;;;;;;;10.50;3.50;;;7.00;99.90;;;;;;5015821;28;20246;-66
2024/02/25 06:28:41;;;;;;;3.43;3.10;;;7.10;99.90;;;;;;5013106;28;20532;-66
2024/02/25 06:31:08;;;;;;;4.57;3.20;;;7.00;99.90;;;;;;5012625;28;20188;-66
2024/02/25 06:33:34;;;;;;;5.47;3.10;;;7.10;99.90;;;;;;5008898;28;20626;-66
2024/02/25 06:36:00;;;;;;;6.97;2.90;;;7.00;99.90;;;;;;5015116;28;20466;-66
2024/02/25 06:38:25;;;;;;;3.70;3.40;;;6.90;99.90;;;;;;5016574;28;20439;-66
2024/02/25 06:40:51;;;;;;;4.27;3.10;;;7.00;99.90;;;;;;5017010;28;20223;-66
2024/02/25 06:43:17;;;;;;;4.50;3.10;;;6.90;99.90;;;;;;5013651;28;20209;-67
2024/02/25 06:45:42;;;;;;;5.30;2.83;;;7.00;99.90;;;;;;5014948;28;20201;-67
2024/02/25 06:48:08;;;;;;;8.80;3.47;;;7.00;99.90;;;;;;5012206;28;20246;-67
2024/02/25 06:50:34;;;;;;;9.70;2.77;;;7.00;99.90;;;;;;5015560;28;20218;-66
2024/02/25 06:53:00;;;;;;;6.10;3.40;;;7.00;99.90;;;;;;5014352;28;20188;-67
2024/02/25 06:55:26;;;;;;;3.53;3.13;;;7.00;99.90;;;;;;5009009;28;20443;-67
2024/02/25 06:57:51;;;;;;;3.80;2.67;;;7.00;99.90;;;;;;5020259;28;20929;-67
2024/02/25 07:00:17;;;;;;;3.23;2.80;;;7.00;99.90;;;;;;5017026;28;20513;-67
2024/02/25 07:02:43;;;;;;;4.57;3.10;;;6.90;99.90;;;;;;5012997;28;20247;-67
2024/02/25 07:05:09;;;;;;;4.10;2.80;;;6.80;99.90;;;;;;5012657;28;20204;-67
2024/02/25 07:07:34;;;;;;;6.00;3.50;;;6.80;99.90;;;;;;5016555;28;20185;-67
2024/02/25 07:10:00;;;;;;;4.87;2.93;;;6.80;99.90;;;;;;5009152;28;20652;-67
2024/02/25 07:12:25;;;;;;;3.90;2.83;;;6.80;99.90;;;;;;5013366;28;20196;-67
2024/02/25 07:14:51;;;;;;;3.27;2.50;;;6.80;99.90;;;;;;5014671;28;20234;-67
2024/02/25 07:17:17;;;;;;;6.00;3.03;;;6.70;99.90;;;;;;5014329;28;20193;-67
2024/02/25 07:19:43;;;;;;;2.83;2.40;;;6.70;99.90;;;;;;5014822;28;20774;-67
2024/02/25 07:22:09;;;;;;;3.43;2.37;;;6.60;99.90;;;;;;5009944;28;20589;-67
2024/02/25 07:24:35;;;;;;;3.10;2.03;;;6.60;99.90;;;;;;5014745;28;20443;-67
2024/02/25 07:27:00;;;;;;;3.30;2.27;;;6.70;99.90;;;;;;5021358;28;20177;-67
2024/02/25 07:29:26;;;;;;;4.17;2.23;;;6.90;99.90;;;;;;5013011;28;20433;-67
2024/02/25 07:31:52;;;;;;;3.93;2.13;;;6.90;99.90;;;;;;5019494;28;20192;-66
2024/02/25 07:34:18;;;;;;;2.63;1.90;;;6.90;99.90;;;;;;5015416;28;20289;-66
2024/02/25 07:36:43;;;;;;;2.50;1.90;;;6.90;99.90;;;;;;5014278;28;20565;-67
2024/02/25 07:39:10;;;;;;;3.50;2.20;;;6.80;99.90;;;;;;5016599;28;20439;-67
2024/02/25 07:41:35;;;;;;;3.43;2.10;;;6.70;99.90;;;;;;5017674;28;20204;-66
2024/02/25 07:44:01;;;;;;;3.13;2.13;;;6.80;99.90;;;;;;5015499;28;20526;-67
2024/02/25 07:46:27;;;;;;;3.57;2.00;;;6.90;99.90;;;;;;5012168;28;20246;-67
2024/02/25 07:48:52;;;;;;;2.60;1.80;;;6.90;99.90;;;;;;5014037;28;20231;-67
2024/02/25 07:51:18;;;;;;;3.17;2.17;;;7.00;99.90;;;;;;5016753;28;20184;-66
2024/02/25 07:53:45;;;;;;;2.03;1.67;;;7.00;99.90;;;;;;5015406;28;20212;-67
2024/02/25 07:56:17;;;;;;;3.43;1.97;;;7.10;99.90;;;;;;5017822;28;20710;-67
2024/02/25 07:58:43;;;;;;;2.50;1.87;;;7.10;99.90;;;;;;5018510;28;20507;-68
2024/02/25 08:01:10;;;;;;;2.33;1.50;;;7.20;99.90;;;;;;5016861;28;21020;-68
2024/02/25 08:03:35;;;;;;;2.53;1.70;;;7.30;99.90;;;;;;5015912;28;20185;-67
2024/02/25 08:06:01;;;;;;;3.20;1.90;;;7.40;99.90;;;;;;5011857;28;20473;-67
2024/02/25 08:08:27;;;;;;;2.60;1.97;;;7.40;99.90;;;;;;5012183;28;20188;-67
2024/02/25 08:10:52;;;;;;;3.93;1.70;;;7.50;99.90;;;;;;5010919;28;20193;-65
2024/02/25 08:13:18;;;;;;;2.10;1.60;;;7.50;99.90;;;;;;5013359;28;20201;-65
2024/02/25 08:15:43;;;;;;;2.83;1.37;;;7.60;99.90;;;;;;5013937;28;20545;-65
2024/02/25 08:18:09;;;;;;;2.40;1.77;;;7.70;99.90;;;;;;5017894;28;20238;-65
2024/02/25 08:20:34;;;;;;;2.07;1.50;;;7.70;99.90;;;;;;5016507;28;20188;-66
2024/02/25 08:23:00;;;;;;;2.00;1.53;;;7.80;99.90;;;;;;5012035;28;20190;-67
2024/02/25 08:25:26;;;;;;;2.63;1.70;;;7.80;99.90;;;;;;5012621;28;20712;-66
2024/02/25 08:27:53;;;;;;;2.37;1.70;;;7.80;99.90;;;;;;5010726;28;20177;-66
2024/02/25 08:30:20;;;;;;;2.70;1.50;;;8.00;99.90;;;;;;5012137;28;20199;-66
2024/02/25 08:32:45;;;;;;;2.40;1.40;;;8.00;99.90;;;;;;5013634;28;20879;-66
2024/02/25 08:35:11;;;;;;;3.03;1.83;;;8.00;99.90;;;;;;5012314;28;20435;-66
2024/02/25 08:37:39;;;;;;;2.20;1.40;;;8.00;99.90;;;;;;5018882;28;20718;-66
2024/02/25 08:40:05;;;;;;;1.93;1.40;;;8.10;99.90;;;;;;5010897;28;20185;-66
2024/02/25 08:42:31;;;;;;;1.90;1.40;;;8.10;99.90;;;;;;5019892;28;20478;-66
2024/02/25 08:44:57;;;;;;;2.00;1.30;;;8.10;99.90;;;;;;5019174;28;20459;-66
2024/02/25 08:47:23;;;;;;;1.80;1.30;;;8.10;99.90;;;;;;5015784;28;20599;-66
2024/02/25 08:49:49;;;;;;;2.30;1.67;;;8.20;99.90;;;;;;5019961;28;20264;-66
2024/02/25 08:52:14;;;;;;;2.20;1.60;;;8.30;99.90;;;;;;5014469;28;20443;-66
2024/02/25 08:54:40;;;;;;;2.30;1.70;;;8.30;99.90;;;;;;5014420;28;20485;-66
2024/02/25 08:57:06;;;;;;;2.23;1.30;;;8.30;99.90;;;;;;5014519;28;20189;-67
2024/02/25 08:59:32;;;;;;;2.30;1.63;;;8.50;99.90;;;;;;5016564;28;20276;-67
2024/02/25 09:01:59;;;;;;;2.10;1.60;;;8.50;99.90;;;;;;5017025;28;20470;-66
2024/02/25 09:04:27;;;;;;;2.00;1.30;;;8.70;99.90;;;;;;5015426;28;20838;-66
2024/02/25 09:06:56;;;;;;;2.00;1.40;;;8.70;99.90;;;;;;5021850;28;20427;-66
2024/02/25 09:09:22;;;;;;;1.90;1.57;;;8.80;99.90;;;;;;5012862;28;20422;-66
2024/02/25 09:11:47;;;;;;;5.93;1.50;;;8.80;99.90;;;;;;5019553;28;20444;-67
2024/02/25 09:14:13;;;;;;;2.20;1.50;;;9.00;99.90;;;;;;5018338;28;20212;-66
2024/02/25 09:16:39;;;;;;;2.00;1.40;;;9.00;99.90;;;;;;5018815;28;20188;-66
2024/02/25 09:19:04;;;;;;;2.20;1.43;;;9.10;99.90;;;;;;5013657;28;20243;-66
2024/02/25 09:21:33;;;;;;;1.80;1.30;;;9.10;99.90;;;;;;5012489;28;20208;-67
2024/02/25 09:24:00;;;;;;;2.37;1.40;;;9.20;99.90;;;;;;5017801;28;20287;-66
2024/02/25 09:26:25;;;;;;;3.60;1.40;;;9.20;99.90;;;;;;5015756;28;20432;-66
2024/02/25 09:28:51;;;;;;;3.60;1.67;;;9.20;99.90;;;;;;5017900;28;20412;-66
2024/02/25 09:31:18;;;;;;;2.83;1.60;;;9.30;99.90;;;;;;5011198;28;20227;-66
2024/02/25 09:33:44;;;;;;;2.00;1.40;;;9.40;99.90;;;;;;5015219;28;20622;-67
2024/02/25 09:36:09;;;;;;;2.00;1.53;;;9.40;99.90;;;;;;5015477;28;20463;-67
2024/02/25 09:38:35;;;;;;;2.00;1.40;;;9.50;99.90;;;;;;5012691;28;20207;-67
2024/02/25 09:41:02;;;;;;;2.40;1.60;;;9.50;99.90;;;;;;5011659;28;20200;-66
2024/02/25 09:43:28;;;;;;;2.00;1.40;;;9.60;99.90;;;;;;5015078;28;20608;-66
2024/02/25 09:45:57;;;;;;;2.70;1.63;;;9.60;99.90;;;;;;5014292;28;20924;-67
2024/02/25 09:48:24;;;;;;;2.70;1.73;;;9.60;99.90;;;;;;5014968;28;20725;-67
2024/02/25 09:50:51;;;;;;;3.57;1.33;;;9.60;99.90;;;;;;5015379;28;20420;-67
2024/02/25 09:53:19;;;;;;;2.80;1.93;;;9.70;99.90;;;;;;5015520;28;20416;-66
2024/02/25 09:55:45;;;;;;;3.80;3.20;;;9.80;99.90;;;;;;5012399;28;20431;-66
2024/02/25 09:58:11;;;;;;;3.30;2.73;;;9.90;99.90;;;;;;5017916;28;20446;-66
2024/02/25 10:00:38;;;;;;;3.50;2.03;;;9.90;99.90;;;;;;5010041;28;20424;-66
2024/02/25 10:03:07;;;;;;;3.70;2.53;;;9.90;99.90;;;;;;5014668;28;20431;-66
2024/02/25 10:05:33;;;;;;;2.40;1.70;;;10.00;99.90;;;;;;5016596;28;20435;-66
2024/02/25 10:08:14;;;;;;;2.30;1.80;;;10.10;99.90;;;;;;5017739;28;20427;-66
2024/02/25 10:10:41;;;;;;;2.40;1.80;;;10.10;99.90;;;;;;5011550;28;20436;-66
2024/02/25 10:13:07;;;;;;;2.60;1.83;;;10.10;99.90;;;;;;5018676;28;20432;-66
2024/02/25 10:15:33;;;;;;;9.33;2.93;;;10.10;99.90;;;;;;5015091;28;20468;-66
2024/02/25 10:17:59;;;;;;;2.47;1.67;;;10.10;99.90;;;;;;5018043;28;20519;-66
2024/02/25 10:20:25;;;;;;;1.80;1.37;;;10.20;99.90;;;;;;5013162;28;20184;-66
2024/02/25 10:23:11;;;;;;;1.83;1.40;;;10.10;99.90;;;;;;5010591;28;20200;-67
2024/02/25 10:25:39;;;;;;;2.67;1.60;;;10.00;99.90;;;;;;5009423;28;20459;-67
2024/02/25 10:28:14;;;;;;;2.50;1.50;;;10.00;99.90;;;;;;5016309;28;20464;-67
2024/02/25 10:30:56;;;;;;;2.03;1.40;;;10.10;99.90;;;;;;5016223;28;20435;-67
2024/02/25 10:33:21;;;;;;;1.97;1.40;;;10.10;99.90;;;;;;5013325;28;20419;-67
2024/02/25 10:35:47;;;;;;;2.00;1.30;;;10.10;99.90;;;;;;5013697;28;20431;-67
2024/02/25 10:38:14;;;;;;;3.23;1.70;;;10.20;99.90;;;;;;5018638;28;20315;-67
2024/02/25 10:40:42;;;;;;;2.70;1.57;;;10.30;99.90;;;;;;5009901;28;20431;-67
2024/02/25 10:43:11;;;;;;;1.80;1.30;;;10.40;99.90;;;;;;5015346;28;20905;-67
2024/02/25 10:45:41;;;;;;;2.40;1.67;;;10.50;99.90;;;;;;5011559;28;20447;-67
2024/02/25 10:48:10;;;;;;;2.50;1.40;;;10.70;99.90;;;;;;5017763;28;20423;-67
2024/02/25 10:50:36;;;;;;;2.00;1.50;;;10.90;99.90;;;;;;5012425;28;20458;-67
2024/02/25 10:53:03;;;;;;;2.00;1.50;;;11.00;99.90;;;;;;5014291;28;20789;-67
2024/02/25 10:55:29;;;;;;;2.00;1.60;;;11.00;99.90;;;;;;5015843;28;20434;-67
2024/02/25 10:57:56;;;;;;;2.60;1.50;;;11.00;99.90;;;;;;5015209;28;20435;-68
2024/02/25 11:00:22;;;;;;;2.73;1.67;;;11.20;99.90;;;;;;5014558;28;20419;-67
2024/02/25 11:02:48;;;;;;;2.67;2.07;;;11.40;99.90;;;;;;5013565;28;20464;-67
2024/02/25 11:05:17;;;;;;;2.10;1.63;;;11.60;99.90;;;;;;5015657;28;20553;-67
2024/02/25 11:07:42;;;;;;;2.50;1.80;;;11.60;99.90;;;;;;5013337;28;20424;-67
2024/02/25 11:10:19;;;;;;;2.20;1.73;;;11.80;99.90;;;;;;5015505;28;20430;-67
2024/02/25 11:12:45;;;;;;;2.10;1.70;;;11.80;99.90;;;;;;5010754;28;20219;-68
2024/02/25 11:15:23;;;;;;;5.03;2.10;;;12.00;99.90;;;;;;5009839;28;20492;-68
2024/02/25 11:17:50;;;;;;;2.70;1.73;;;12.30;99.90;;;;;;5009529;28;20894;-67
2024/02/25 11:20:22;;;;;;;2.67;1.97;;;12.50;99.90;;;;;;5014951;28;20428;-68
2024/02/25 11:22:49;;;;;;;2.10;1.70;;;12.60;99.90;;;;;;5015184;28;20469;-67
2024/02/25 11:25:33;;;;;;;2.60;1.80;;;12.70;99.90;;;;;;5009453;28;21128;-67
2024/02/25 11:28:04;;;;;;;4.23;1.77;;;12.90;99.90;;;;;;5016672;28;20434;-68
2024/02/25 11:30:48;;;;;;;2.33;1.60;;;12.90;99.90;;;;;;5012656;28;20428;-67
2024/02/25 11:33:42;;;;;;;2.10;1.57;;;13.20;99.90;;;;;;5011644;28;20506;-67
2024/02/25 11:36:10;;;;;;;2.60;1.80;;;13.30;99.90;;;;;;5012467;28;20421;-67
2024/02/25 11:38:35;;;;;;;3.10;1.80;;;13.30;99.90;;;;;;5014049;28;20463;-66
2024/02/25 11:41:02;;;;;;;2.37;1.87;;;13.20;99.90;;;;;;5014762;28;20459;-67
2024/02/25 11:43:28;;;;;;;2.30;1.70;;;13.00;99.90;;;;;;5014604;28;20208;-66
2024/02/25 11:45:56;;;;;;;3.20;2.40;;;12.80;99.90;;;;;;5013292;28;20443;-66
2024/02/25 11:48:22;;;;;;;2.50;1.80;;;12.50;99.90;;;;;;5013198;28;20185;-67
2024/02/25 11:50:49;;;;;;;2.33;1.63;;;12.30;99.90;;;;;;5011612;28;20484;-67
2024/02/25 11:53:14;;;;;;;3.03;1.97;;;12.30;99.90;;;;;;5013196;28;20713;-66
2024/02/25 11:55:40;;;;;;;2.20;1.60;;;12.30;99.90;;;;;;5016493;28;20452;-66
2024/02/25 11:58:05;;;;;;;2.93;1.63;;;12.20;99.90;;;;;;5019371;28;20284;-66
2024/02/25 12:00:32;;;;;;;3.40;1.77;;;12.20;99.90;;;;;;5015366;28;20204;-66
2024/02/25 12:02:58;;;;;;;4.20;1.80;;;12.20;99.90;;;;;;5018653;28;20183;-66
2024/02/25 12:05:25;;;;;;;2.50;2.10;;;12.30;99.90;;;;;;5016415;28;20514;-67
2024/02/25 12:07:58;;;;;;;2.53;1.60;;;12.40;99.90;;;;;;5013712;28;20412;-66
2024/02/25 12:10:25;;;;;;;2.20;1.60;;;12.40;99.90;;;;;;5014083;28;20453;-66
2024/02/25 12:12:52;;;;;;;2.47;1.80;;;12.30;99.90;;;;;;5010460;28;20806;-66
2024/02/25 12:15:18;;;;;;;5.60;1.60;;;12.20;99.90;;;;;;5016702;28;20931;-66
2024/02/25 12:17:45;;;;;;;2.40;1.70;;;12.20;99.90;;;;;;5019029;28;20497;-66
2024/02/25 12:20:11;;;;;;;2.00;1.60;;;12.10;99.90;;;;;;5021985;28;20423;-66
2024/02/25 12:22:40;;;;;;;2.00;1.70;;;12.20;99.90;;;;;;5016378;28;20472;-66
2024/02/25 12:25:07;;;;;;;2.20;1.97;;;12.20;99.90;;;;;;5016293;28;20471;-67
2024/02/25 12:27:33;;;;;;;2.53;1.80;;;12.30;99.90;;;;;;5021260;28;20423;-65
2024/02/25 12:30:00;;;;;;;3.23;1.70;;;12.50;99.90;;;;;;5016962;28;20416;-65
2024/02/25 12:32:26;;;;;;;2.80;1.83;;;12.60;99.90;;;;;;5021753;28;20459;-65
2024/02/25 12:34:52;;;;;;;2.00;1.60;;;12.70;99.90;;;;;;5018242;28;20450;-65
2024/02/25 12:37:22;;;;;;;2.30;1.87;;;12.80;99.90;;;;;;5017797;28;20435;-65
2024/02/25 12:39:49;;;;;;;3.70;2.90;;;12.80;99.90;;;;;;5018213;28;20403;-65
2024/02/25 12:42:17;;;;;;;2.63;1.67;;;12.90;99.90;;;;;;5014992;28;20450;-66
2024/02/25 12:44:43;;;;;;;2.97;2.03;;;12.90;99.90;;;;;;5017268;28;20498;-66
2024/02/25 12:47:10;;;;;;;2.70;1.97;;;12.80;99.90;;;;;;5018815;28;20432;-65
2024/02/25 12:49:36;;;;;;;3.13;1.93;;;12.90;99.90;;;;;;5013236;28;20443;-66
2024/02/25 12:52:03;;;;;;;3.07;2.00;;;12.90;99.90;;;;;;5014006;28;20510;-66